Pagina principale
METAR-TAF:

METAR-TAF

Aeroporti :

Horta, Azzorre, Portogallo

latitudine: 38-31N, longitudine: 028-43W, altezza: 40 m

Osservazione

Il bollettino è stato emesso 34 minuti fa, alle 13:30 UTC
Vento 14 kt da sud-est
Temperature 18°C
Umidità 88%
Pressione 1025 hPa
Visibilità 10 km o più
Poco nuvoloso ad un'altezza di 1400 ft
Nuvoloso ad un'altezza di 5000 ft

METAR: LPHR 191330Z 13014KT 9999 FEW014 BKN050 18/16 Q1025

Ora: 13:04 (14:04 UTC)

Previsione

Il bollettino è stato emesso 3 ore e 4 minuti fa, alle 11:00 UTC
Previsione valida dal 19 alle 12 UTC al 19 alle 21 UTC
Vento 13 kt da sud-est
Visibilità 10 km o più
Poco nuvoloso ad un'altezza di 1200 ft
Nubi sparse ad un'altezza di 3500 ft
Probabilità 40% :
Temporaneamente
dal 19 alle 12 UTC al 19 alle 21 UTC
Vento 18 kt da sud-est con raffiche fino a 28 kt

TAF: LPHR 191100Z 1912/1921 14013KT 9999 FEW012 SCT035 PROB40 TEMPO 1912/1921 13018G28KT

Osservazioni e previsioni meteorologiche di più di 4000 aeroporti (messaggi METAR e TAF).

Le stazioni disponibili sono rappresentate dai dischi gialli e rossi sulla carta.

Puntare il mouse per vedere il nome della stazione.

Clicca sopra per visualizzare le osservazioni e previsioni meteorologiche.

Per cambiare la mappa : fare clic sui pulsanti verdi con una croce nera per ingrandire, il pulsante verde con un trattino per diminuire, o sulla freccia verde per le mappe adiacenti.


METAR-TAF: